Nearby METAR Reports

 

KHIF - Hill Afb/Ogden, Utah, USA
Distance from station: ENE 6mi, 9km
Updated: Tue, 21-Nov-2017 11:58pm MST
Overcast
Overcast
 Wind from ESE
Wind: ESE 5 mph , 7 km/h
Temperature: 50°F , 10°C
Wind Chill: 48°F , 9°C
Dew Point: 39°F , 4°C
Humidity: 67%
Barometer: 30.39 inHg , 1029.1 hPa
Clouds: Overcast
Visibility: 10 miles , 16 km
Cloud details: Overcast 5000 ft
2017/11/22 06:58 KHIF 220658Z 12004KT 10SM OVC050 10/04 A3039 RMK AO2A SLPNO T01020039 401410047
KOGD - Ogden, Utah, USA
Distance from station: NNE 9mi, 14km
Updated: Tue, 21-Nov-2017 11:53pm MST
Overcast
Overcast
 Wind from SSE
Wind: SSE 7 mph , 11 km/h
Temperature: 50°F , 10°C
Wind Chill: 47°F , 8°C
Dew Point: 39°F , 4°C
Humidity: 67%
Barometer: 30.38 inHg , 1028.8 hPa
Clouds: Overcast
Visibility: 10 miles , 16 km
Cloud details: Overcast 5500 ft
2017/11/22 06:53 KOGD 220653Z AUTO 16006KT 10SM OVC055 10/04 A3038 RMK AO2 SLP267 T01000044 401500039
 
KSLC - Salt Lake City, Utah, USA
Distance from station: SSE 21mi, 34km
Updated: Tue, 21-Nov-2017 11:54pm MST
Mostly cloudy
Mostly cloudy
 Wind from SSE
Wind: SSE 7 mph , 11 km/h
Temperature: 48°F , 9°C
Wind Chill: 45°F , 7°C
Dew Point: 41°F , 5°C
Humidity: 76%
Barometer: 30.38 inHg , 1028.8 hPa
Clouds: Mostly cloudy
Visibility: 10 miles , 16 km
Cloud details: Partly cloudy 6000 ft
Mostly cloudy 22000 ft
2017/11/22 06:54 KSLC 220654Z 16006KT 10SM SCT060 BKN220 09/05 A3038 RMK AO2 SLP269 T00940050 401780067 $
KLGU - Logan, Utah, USA
Distance from station: NNE 50mi, 80km
Updated: Tue, 21-Nov-2017 11:51pm MST
Overcast
Overcast
 Wind from calm
Wind: Calm
Temperature: 46°F , 8°C
Dew Point: 43°F , 6°C
Humidity: 87%
Barometer: 30.38 inHg , 1028.8 hPa
Clouds: Overcast
Visibility: 10 miles , 16 km
Cloud details: Overcast 4500 ft
2017/11/22 06:51 KLGU 220651Z AUTO 00000KT 10SM OVC045 08/06 A3038 RMK AO2 SLP272 T00830061 401610044 $
 
K36U - Heber/Russ Mcdon, Utah, USA
Distance from station: SE 53mi, 85km
Updated: Wed, 11-Oct-2017 6:50pm MDT
NOT Current
Clear
Clear
 Wind from SSW
Wind: SSW 10 mph , 17 km/h, Gust: 18 mph , 30 km/h
Temperature: 63°F , 17°C
Dew Point: 16°F , -9°C
Humidity: 16%
Barometer: 29.87 inHg , 1011.5 hPa
Clouds: Clear
Visibility: 10 miles , 16 km
2017/10/12 00:50 K36U 120050Z AUTO 21009G16KT 10SM CLR 17/M09 A2987 RMK AO2
KEVW - Evanston, Wyoming, USA
Distance from station: ENE 55mi, 89km
Updated: Tue, 21-Nov-2017 11:53pm MST
Overcast
Overcast
 Wind from SW
Wind: SW 12 mph , 19 km/h
Temperature: 43°F , 6°C
Wind Chill: 37°F , 3°C
Dew Point: 36°F , 2°C
Humidity: 76%
Barometer: 30.44 inHg , 1030.8 hPa
Clouds: Overcast
Visibility: 10 miles , 16 km
Cloud details: Mostly cloudy 3700 ft
Overcast 4500 ft
2017/11/22 06:53 KEVW 220653Z AUTO 23010KT 10SM BKN037 OVC045 06/02 A3044 RMK AO2 SLP277 T00560022 400940028
 
KPVU - Provo Muni, Utah, USA
Distance from station: SSE 62mi, 100km
Updated: Tue, 21-Nov-2017 11:56pm MST
Clear
Clear
 Wind from calm
Wind: Calm
Temperature: 41°F , 5°C
Dew Point: 37°F , 3°C
Humidity: 87%
Barometer: 30.42 inHg , 1030.1 hPa
Clouds: Clear
Visibility: 10 miles , 16 km
2017/11/22 06:56 KPVU 220656Z AUTO 00000KT 10SM CLR 05/03 A3042 RMK AO2 SLP295 T00500028 401560039
KDPG - Dugway Prvg Grou, Utah, USA
Distance from station: SW 75mi, 121km
Updated: Tue, 21-Nov-2017 4:55pm MST
NOT Current
Mostly cloudy
Mostly cloudy
 Wind from calm
Wind: Calm
Temperature: 61°F , 16°C
Dew Point: 37°F , 3°C
Humidity: 42%
Barometer: 30.33 inHg , 1027.1 hPa
Clouds: Mostly cloudy
Visibility: 40 miles , 64 km
Cloud details: Few Clouds 6500 ft
Partly cloudy 11000 ft
Mostly cloudy 22000 ft
2017/11/21 23:55 KDPG 212355Z COR 00000KT 40SM FEW065 SCT110 BKN220 16/03 A3033 RMK T01600031 10178 20112 52003 LAST COR 0010
 
KENV - Wendover (aut), Utah, USA
Distance from station: WSW 105mi, 169km
Updated: Tue, 21-Nov-2017 11:56pm MST
Clear
Clear
 Wind from calm
Wind: Calm
Temperature: 43°F , 6°C
Dew Point: 36°F , 2°C
Humidity: 76%
Barometer: 30.38 inHg , 1028.8 hPa
Clouds: Clear
Visibility: 10 miles , 16 km
2017/11/22 06:56 KENV 220656Z AUTO 00000KT 10SM CLR 06/02 A3038 RMK AO2 SLP294 T00610017 401390022
KPUC - Price, Utah, USA
Distance from station: SE 123mi, 197km
Updated: Tue, 21-Nov-2017 11:53pm MST
Partly cloudy
Partly cloudy
 Wind from E
Wind: E 5 mph , 7 km/h
Temperature: 39°F , 4°C
Wind Chill: 35°F , 2°C
Dew Point: 16°F , -9°C
Humidity: 39%
Barometer: 30.41 inHg , 1029.8 hPa
Clouds: Partly cloudy
Visibility: 10 miles , 16 km
Cloud details: Partly cloudy 11000 ft
2017/11/22 06:53 KPUC 220653Z AUTO 09004KT 10SM SCT110 04/M09 A3041 RMK AO2 SLP299 T00441089 401441033
 
KPIH - Pocatello, Idaho, USA
Distance from station: NNW 130mi, 208km
Updated: Tue, 21-Nov-2017 11:53pm MST
Overcast
Overcast
 Wind from ESE
Wind: ESE 3 mph , 6 km/h
Temperature: 43°F , 6°C
Dew Point: 41°F , 5°C
Humidity: 93%
Barometer: 30.37 inHg , 1028.4 hPa
Clouds: Overcast
Visibility: 8 miles , 13 km
Cloud details: Few Clouds 3700 ft
Partly cloudy 4600 ft
Overcast 7500 ft
2017/11/22 06:53 KPIH 220653Z AUTO 11003KT 8SM FEW037 SCT046 OVC075 06/05 A3037 RMK AO2 RAE0555 SLP283 P0000 T00560050 401110044
KBYI - Burley, Idaho, USA
Distance from station: NW 134mi, 216km
Updated: Tue, 21-Nov-2017 11:53pm MST
Mostly cloudy
Mostly cloudy
 Wind from N
Wind: N 3 mph , 6 km/h
Temperature: 45°F , 7°C
Dew Point: 43°F , 6°C
Humidity: 93%
Barometer: 30.33 inHg , 1027.1 hPa
Clouds: Mostly cloudy
Visibility: 10 miles , 16 km
Cloud details: Few Clouds 10000 ft
Mostly cloudy 12000 ft
2017/11/22 06:53 KBYI 220653Z AUTO 01003KT 10SM FEW100 BKN120 07/06 A3033 RMK AO2 SLP256 T00720056 401670067
 
KVEL - Vernal, Utah, USA
Distance from station: ESE 140mi, 226km
Updated: Tue, 21-Nov-2017 11:53pm MST
Clear
Clear
 Wind from calm
Wind: Calm
Temperature: 43°F , 6°C
Dew Point: 30°F , -1°C
Humidity: 61%
Barometer: 30.39 inHg , 1029.1 hPa
Clouds: Clear
Visibility: 10 miles , 16 km
2017/11/22 06:53 KVEL 220653Z AUTO 00000KT 10SM CLR 06/M01 A3039 RMK AO2 SLP272 T00611006 401501011
KBPI - Big Piney, Wyoming, USA
Distance from station: NE 145mi, 234km
Updated: Tue, 21-Nov-2017 11:53pm MST
Overcast
Overcast
 Wind from calm
Wind: Calm
Temperature: 34°F , 1°C
Dew Point: 32°F , 0°C
Humidity: 93%
Barometer: 30.40 inHg , 1029.5 hPa
Clouds: Overcast
Visibility: 10 miles , 16 km
Cloud details: Partly cloudy 3400 ft
Overcast 4500 ft
2017/11/22 06:53 KBPI 220653Z AUTO 00000KT 10SM SCT034 OVC045 01/00 A3040 RMK AO2 SLP275 T00110000 400891050